createdAt,value
2023-04-23T00:00:07.974Z,997.3
2023-04-23T00:01:08.981Z,997.2
2023-04-23T00:02:10.059Z,997.2
2023-04-23T00:03:11.069Z,997.3
2023-04-23T00:04:12.250Z,997.2
2023-04-23T00:05:13.065Z,996.6
2023-04-23T00:06:13.978Z,997.1
2023-04-23T00:07:15.034Z,997.2
2023-04-23T00:08:15.994Z,997.2
2023-04-23T00:09:16.981Z,997.2
2023-04-23T00:10:17.993Z,997.2
2023-04-23T00:11:19.086Z,997.2
2023-04-23T00:12:19.992Z,997.3
2023-04-23T00:13:20.958Z,997.1
2023-04-23T00:14:21.954Z,997.1
2023-04-23T00:15:22.994Z,997.2
2023-04-23T00:16:24.073Z,997.1
2023-04-23T00:17:24.998Z,997.1
2023-04-23T00:18:26.039Z,997.1
2023-04-23T00:19:26.982Z,997.1
2023-04-23T00:20:27.994Z,997.1
2023-04-23T00:21:29.025Z,997.1
2023-04-23T00:22:29.994Z,997.1
2023-04-23T00:23:30.980Z,997.1
2023-04-23T00:24:32.001Z,997.1
2023-04-23T00:25:33.013Z,997
2023-04-23T00:26:34.065Z,997.1
2023-04-23T00:27:34.991Z,997.1
2023-04-23T00:28:36.033Z,997.1
2023-04-23T00:29:37.014Z,997
2023-04-23T00:30:38.654Z,997.1
2023-04-23T00:31:40.185Z,997
2023-04-23T00:32:41.031Z,997.1
2023-04-23T00:33:41.991Z,997
2023-04-23T00:34:43.230Z,997
2023-04-23T00:35:43.994Z,997
2023-04-23T00:36:45.068Z,997.1
2023-04-23T00:37:45.971Z,997.1
2023-04-23T00:38:47.021Z,997
2023-04-23T00:39:47.997Z,997
2023-04-23T00:40:49.021Z,997
2023-04-23T00:41:50.052Z,997
2023-04-23T00:42:50.982Z,996.9
2023-04-23T00:43:51.996Z,996.9
2023-04-23T00:44:53.024Z,997
2023-04-23T00:45:54.037Z,996.9
2023-04-23T00:46:55.112Z,996.9
2023-04-23T00:47:56.063Z,996.9
2023-04-23T00:48:57.017Z,996.9
2023-04-23T00:49:58.074Z,996.8
2023-04-23T00:50:59.072Z,996.9
2023-04-23T00:52:00.075Z,996.9
2023-04-23T00:53:01.012Z,996.9
2023-04-23T00:54:02.038Z,996.9
2023-04-23T00:55:03.015Z,996.9
2023-04-23T00:56:04.000Z,996.9
2023-04-23T00:57:05.093Z,996.8
2023-04-23T00:58:06.075Z,996.8
2023-04-23T00:59:06.956Z,996.9
2023-04-23T01:00:08.036Z,996.8
2023-04-23T01:01:09.035Z,996.8
2023-04-23T01:02:10.161Z,996.9
2023-04-23T01:03:11.205Z,997
2023-04-23T01:04:12.105Z,996.9
2023-04-23T01:05:13.056Z,996.9
2023-04-23T01:06:14.016Z,996.9
2023-04-23T01:07:15.633Z,996.9
2023-04-23T01:08:17.134Z,997
2023-04-23T01:09:18.040Z,996.9
2023-04-23T01:10:19.081Z,996.9
2023-04-23T01:11:21.078Z,996.9
2023-04-23T01:12:22.080Z,996.9
2023-04-23T01:13:23.033Z,996.3
2023-04-23T01:14:23.976Z,996.7
2023-04-23T01:15:25.084Z,996.8
2023-04-23T01:16:26.044Z,996.9
2023-04-23T01:17:27.053Z,996.9
2023-04-23T01:18:28.067Z,996.9
2023-04-23T01:19:28.988Z,996.9
2023-04-23T01:20:30.099Z,996.9
2023-04-23T01:21:30.961Z,996.9
2023-04-23T01:22:32.040Z,996.9
2023-04-23T01:23:33.037Z,996.8
2023-04-23T01:24:34.066Z,996.8
2023-04-23T01:25:35.014Z,996.8
2023-04-23T01:26:36.036Z,996.8
2023-04-23T01:27:37.042Z,996.8
2023-04-23T01:28:38.016Z,996.8
2023-04-23T01:29:39.063Z,996.8
2023-04-23T01:30:40.026Z,996.9
2023-04-23T01:31:40.982Z,996.8
2023-04-23T01:32:42.166Z,996.8
2023-04-23T01:33:43.000Z,996.9
2023-04-23T01:34:44.119Z,996.8
2023-04-23T01:35:45.000Z,996.8
2023-04-23T01:36:46.117Z,996.8
2023-04-23T01:37:47.097Z,996.7
2023-04-23T01:38:48.097Z,996.7
2023-04-23T01:39:49.061Z,996.7
2023-04-23T01:40:50.045Z,996.7
2023-04-23T01:41:51.083Z,996.7
2023-04-23T01:42:52.108Z,996.7
2023-04-23T01:43:53.015Z,996.7
2023-04-23T01:44:54.032Z,996.7
2023-04-23T01:45:55.041Z,996.7
2023-04-23T01:46:56.059Z,996.7
2023-04-23T01:47:57.158Z,996.7
2023-04-23T01:48:58.054Z,996.7
2023-04-23T01:49:59.228Z,996.7
2023-04-23T01:51:00.054Z,996.7
2023-04-23T01:52:01.074Z,996.7
2023-04-23T01:53:02.501Z,996.7
2023-04-23T01:54:04.057Z,996.7
2023-04-23T01:55:05.038Z,996.7
2023-04-23T01:56:06.039Z,996.7
2023-04-23T01:57:07.075Z,996.7
2023-04-23T01:58:08.099Z,996.6
2023-04-23T01:59:09.053Z,996.6
2023-04-23T02:00:10.075Z,996.6
2023-04-23T02:01:11.101Z,996.6
2023-04-23T02:02:12.057Z,996.6
2023-04-23T02:03:13.287Z,996.6
2023-04-23T02:04:14.198Z,996.4
2023-04-23T02:05:15.058Z,996.5
2023-04-23T02:06:16.092Z,996.5
2023-04-23T02:07:17.062Z,996.5
2023-04-23T02:08:18.118Z,996.5
2023-04-23T02:09:19.202Z,996.6
2023-04-23T02:10:20.070Z,996.5
2023-04-23T02:11:21.234Z,996.5
2023-04-23T02:12:22.027Z,996.5
2023-04-23T02:13:23.133Z,996.5
2023-04-23T02:14:23.994Z,996.5
2023-04-23T02:15:25.058Z,996.6
2023-04-23T02:16:26.091Z,996.5
2023-04-23T02:17:27.089Z,996.5
2023-04-23T02:18:28.059Z,996.5
2023-04-23T02:19:29.022Z,996.5
2023-04-23T02:20:30.117Z,996.5
2023-04-23T02:21:31.041Z,996.4
2023-04-23T02:22:32.057Z,996.5
2023-04-23T02:23:33.043Z,996.5
2023-04-23T02:24:34.104Z,996.5
2023-04-23T02:25:35.108Z,996.5
2023-04-23T02:26:36.003Z,996.5
2023-04-23T02:27:37.077Z,996.5
2023-04-23T02:28:38.080Z,996.4
2023-04-23T02:29:39.204Z,996.4
2023-04-23T02:30:40.078Z,996.4
2023-04-23T02:31:41.120Z,996.5
2023-04-23T02:32:42.093Z,996.4
2023-04-23T02:33:43.054Z,996.4
2023-04-23T02:34:44.086Z,996.4
2023-04-23T02:35:45.164Z,996.4
2023-04-23T02:36:46.099Z,996.4
2023-04-23T02:37:48.116Z,996.4
2023-04-23T02:38:49.088Z,996.4
2023-04-23T02:39:50.056Z,996.4
2023-04-23T02:40:51.058Z,996.4
2023-04-23T02:41:52.080Z,996.4
2023-04-23T02:42:53.055Z,996.3
2023-04-23T02:43:54.547Z,996.4
2023-04-23T02:44:56.041Z,996.4
2023-04-23T02:45:57.087Z,996.4
2023-04-23T02:46:58.313Z,996.4
2023-04-23T02:47:59.135Z,996.4
2023-04-23T02:49:00.187Z,996.4
2023-04-23T02:50:01.395Z,996.4
2023-04-23T02:51:02.175Z,996.4
2023-04-23T02:52:03.075Z,996.4
2023-04-23T02:53:04.221Z,996.4
2023-04-23T02:54:05.114Z,996.4
2023-04-23T02:55:06.104Z,996.4
2023-04-23T02:56:07.620Z,996.4
2023-04-23T02:57:09.080Z,996.3
2023-04-23T02:58:10.042Z,996.3
2023-04-23T02:59:11.784Z,996.4
2023-04-23T03:00:13.112Z,996.4
2023-04-23T03:01:14.066Z,996.4
2023-04-23T03:02:15.114Z,996.4
2023-04-23T03:03:16.204Z,996.4
2023-04-23T03:04:17.231Z,996.4
2023-04-23T03:05:18.098Z,996.5
2023-04-23T03:06:19.174Z,996.4
2023-04-23T03:07:20.093Z,996.4
2023-04-23T03:08:21.073Z,996.4
2023-04-23T03:09:22.252Z,996.4
2023-04-23T03:10:23.076Z,996.4
2023-04-23T03:11:24.081Z,996.4
2023-04-23T03:12:25.046Z,996.4
2023-04-23T03:13:26.123Z,996.4
2023-04-23T03:14:27.198Z,996.4
2023-04-23T03:15:28.135Z,996.4
2023-04-23T03:16:29.119Z,996.4
2023-04-23T03:17:30.129Z,996.4
2023-04-23T03:18:31.083Z,996.4
2023-04-23T03:19:32.111Z,996.4
2023-04-23T03:20:33.113Z,996.4
2023-04-23T03:21:34.073Z,996.4
2023-04-23T03:22:35.084Z,996.4
2023-04-23T03:23:36.708Z,996.4
2023-04-23T03:24:38.219Z,996.3
2023-04-23T03:25:39.174Z,996.4
2023-04-23T03:26:40.116Z,996.3
2023-04-23T03:27:41.074Z,996.4
2023-04-23T03:28:42.092Z,996.4
2023-04-23T03:29:43.124Z,996.4
2023-04-23T03:30:44.147Z,996.4
2023-04-23T03:31:45.121Z,996.3
2023-04-23T03:32:46.137Z,996.4
2023-04-23T03:33:47.093Z,996.4
2023-04-23T03:34:48.082Z,996.4
2023-04-23T03:35:49.153Z,996.3
2023-04-23T03:36:50.163Z,996.4
2023-04-23T03:37:51.094Z,996.3
2023-04-23T03:38:52.132Z,996.4
2023-04-23T03:39:53.092Z,996.4
2023-04-23T03:40:54.760Z,996.4
2023-04-23T03:41:56.127Z,996.4
2023-04-23T03:42:57.094Z,996.3
2023-04-23T03:43:58.094Z,996.3
2023-04-23T03:44:59.106Z,996.4
2023-04-23T03:46:00.447Z,996.3
2023-04-23T03:47:01.130Z,996.3
2023-04-23T03:48:02.145Z,996.3
2023-04-23T03:49:03.083Z,996.3
2023-04-23T03:50:04.165Z,996.3
2023-04-23T03:51:05.124Z,996.3
2023-04-23T03:52:06.131Z,996.3
2023-04-23T03:53:07.092Z,996.3
2023-04-23T03:54:08.132Z,996.3
2023-04-23T03:55:09.080Z,996.3
2023-04-23T03:56:10.113Z,996.2
2023-04-23T03:57:11.096Z,996.2
2023-04-23T03:58:12.493Z,996.2
2023-04-23T03:59:14.149Z,996.2
2023-04-23T04:00:15.199Z,996.2
2023-04-23T04:01:16.076Z,996.2
2023-04-23T04:02:17.140Z,996.2
2023-04-23T04:03:18.376Z,996.2
2023-04-23T04:04:19.293Z,996.2
2023-04-23T04:05:20.158Z,996.2
2023-04-23T04:06:21.130Z,996.2
2023-04-23T04:07:22.216Z,996.2
2023-04-23T04:08:23.145Z,996.2
2023-04-23T04:09:24.094Z,996.2
2023-04-23T04:10:25.599Z,996.2
2023-04-23T04:11:27.169Z,996.1
2023-04-23T04:12:28.132Z,996.2
2023-04-23T04:13:29.084Z,996.2
2023-04-23T04:14:30.078Z,996.3
2023-04-23T04:15:31.713Z,996.3
2023-04-23T04:16:33.301Z,996.2
2023-04-23T04:17:34.230Z,996.2
2023-04-23T04:18:35.150Z,996.3
2023-04-23T04:19:36.338Z,996.2
2023-04-23T04:20:37.160Z,996.3
2023-04-23T04:21:38.122Z,996.3
2023-04-23T04:22:39.297Z,996.3
2023-04-23T04:23:40.231Z,996.2
2023-04-23T04:24:41.413Z,996.3
2023-04-23T04:25:42.186Z,996.2
2023-04-23T04:26:43.096Z,996.2
2023-04-23T04:27:44.137Z,996.2
2023-04-23T04:28:45.177Z,996.2
2023-04-23T04:29:46.097Z,996.2
2023-04-23T04:30:47.285Z,996.2
2023-04-23T04:31:48.246Z,996.2
2023-04-23T04:32:49.131Z,996.2
2023-04-23T04:33:50.125Z,996.2
2023-04-23T04:34:51.160Z,996.2
2023-04-23T04:35:52.210Z,996.2
2023-04-23T04:36:53.080Z,996.2
2023-04-23T04:37:54.392Z,996.1
2023-04-23T04:38:55.143Z,996.1
2023-04-23T04:39:56.203Z,996.1
2023-04-23T04:40:57.173Z,996.2
2023-04-23T04:41:58.194Z,996.1
2023-04-23T04:42:59.187Z,996.2
2023-04-23T04:44:00.232Z,996.2
2023-04-23T04:45:01.140Z,996.1
2023-04-23T04:46:02.160Z,996.1
2023-04-23T04:47:03.169Z,996.1
2023-04-23T04:48:04.234Z,996.1
2023-04-23T04:49:05.113Z,996.1
2023-04-23T04:50:06.255Z,996.1
2023-04-23T04:51:07.956Z,996.1
2023-04-23T04:52:09.142Z,996.1
2023-04-23T04:53:10.120Z,996.2
2023-04-23T04:54:11.147Z,996.1
2023-04-23T04:55:12.175Z,996.1
2023-04-23T04:56:13.191Z,996.1
2023-04-23T04:57:14.101Z,996.1
2023-04-23T04:58:15.215Z,996.1
2023-04-23T04:59:16.231Z,996.1
2023-04-23T05:00:17.121Z,996.2
2023-04-23T05:01:18.283Z,996.1
2023-04-23T05:02:19.419Z,996.1
2023-04-23T05:03:20.295Z,996.1
2023-04-23T05:04:21.234Z,996.1
2023-04-23T05:05:22.095Z,996.1
2023-04-23T05:06:23.157Z,996
2023-04-23T05:07:24.175Z,996
2023-04-23T05:08:25.766Z,996.1
2023-04-23T05:09:27.233Z,996
2023-04-23T05:10:28.242Z,996
2023-04-23T05:11:29.194Z,996
2023-04-23T05:12:30.357Z,996
2023-04-23T05:13:31.134Z,996
2023-04-23T05:14:32.102Z,996
2023-04-23T05:15:33.157Z,996
2023-04-23T05:16:34.150Z,996
2023-04-23T05:17:35.155Z,996
2023-04-23T05:18:36.142Z,996
2023-04-23T05:19:37.157Z,996
2023-04-23T05:20:38.238Z,996
2023-04-23T05:21:39.235Z,996
2023-04-23T05:22:40.353Z,996
2023-04-23T05:23:41.175Z,995.9
2023-04-23T05:24:42.390Z,995.9
2023-04-23T05:25:43.974Z,996
2023-04-23T05:26:45.172Z,995.9
2023-04-23T05:27:46.158Z,996
2023-04-23T05:28:47.136Z,996
2023-04-23T05:29:48.523Z,995.9
2023-04-23T05:30:50.160Z,995.9
2023-04-23T05:31:51.220Z,995.9
2023-04-23T05:32:52.251Z,995.9
2023-04-23T05:33:53.098Z,995.9
2023-04-23T05:34:54.160Z,995.9
2023-04-23T05:35:55.751Z,995.9
2023-04-23T05:36:57.194Z,995.8
2023-04-23T05:37:58.184Z,995.9
2023-04-23T05:38:59.167Z,995.9
2023-04-23T05:40:00.243Z,995.9
2023-04-23T05:41:01.168Z,995.9
2023-04-23T05:42:02.230Z,995.9
2023-04-23T05:43:03.121Z,995.9
2023-04-23T05:44:05.072Z,995.9
2023-04-23T05:45:08.016Z,995.9
2023-04-23T05:46:07.650Z,995.9
2023-04-23T05:47:08.142Z,995.9
2023-04-23T05:48:09.505Z,995.9
2023-04-23T05:49:10.165Z,995.9
2023-04-23T05:50:11.147Z,995.9
2023-04-23T05:51:12.227Z,995.9
2023-04-23T05:52:13.159Z,995.9
2023-04-23T05:53:14.111Z,995.9
2023-04-23T05:54:15.132Z,995.9
2023-04-23T05:55:16.196Z,995.9
2023-04-23T05:56:17.623Z,995.9
2023-04-23T05:57:19.563Z,995.9
2023-04-23T05:58:21.202Z,995.9
2023-04-23T05:59:22.289Z,995.9
2023-04-23T06:00:23.199Z,995.9
2023-04-23T06:01:24.622Z,995.9
2023-04-23T06:02:26.431Z,995.9
2023-04-23T06:03:27.408Z,996
2023-04-23T06:04:28.338Z,995.9
2023-04-23T06:05:29.261Z,995.9
2023-04-23T06:06:30.162Z,996
2023-04-23T06:07:31.184Z,996
2023-04-23T06:08:32.261Z,996
2023-04-23T06:09:33.188Z,996
2023-04-23T06:10:34.156Z,995.9
2023-04-23T06:11:35.557Z,995.9
2023-04-23T06:12:36.161Z,995.9
2023-04-23T06:13:37.162Z,995.9
2023-04-23T06:14:38.222Z,995.9
2023-04-23T06:15:39.205Z,995.9
2023-04-23T06:16:40.179Z,995.4
2023-04-23T06:17:42.033Z,995.8
2023-04-23T06:18:43.368Z,995.9
2023-04-23T06:19:44.159Z,996
2023-04-23T06:20:45.160Z,995.9
2023-04-23T06:21:46.111Z,995.9
2023-04-23T06:22:47.211Z,995.9
2023-04-23T06:23:48.174Z,995.9
2023-04-23T06:24:49.438Z,995.9
2023-04-23T06:25:50.154Z,995.9
2023-04-23T06:26:51.380Z,995.9
2023-04-23T06:27:52.243Z,995.9
2023-04-23T06:28:53.186Z,995.9
2023-04-23T06:29:54.144Z,995.9
2023-04-23T06:30:55.200Z,995.9
2023-04-23T06:31:56.218Z,995.9
2023-04-23T06:32:57.308Z,995.9
2023-04-23T06:33:58.172Z,995.9
2023-04-23T06:35:01.800Z,995.9
2023-04-23T06:36:00.203Z,995.9
2023-04-23T06:37:01.137Z,995.9
2023-04-23T06:38:02.297Z,995.8
2023-04-23T06:39:03.166Z,995.9
2023-04-23T06:40:04.439Z,995.8
2023-04-23T06:41:06.207Z,995.8
2023-04-23T06:42:07.157Z,995.8
2023-04-23T06:43:08.215Z,995.8
2023-04-23T06:44:09.215Z,995.8
2023-04-23T06:45:10.179Z,995.8
2023-04-23T06:46:11.238Z,995.8
2023-04-23T06:47:12.292Z,995.8
2023-04-23T06:48:13.226Z,995.7
2023-04-23T06:49:14.203Z,995.7
2023-04-23T06:50:15.226Z,995.9
2023-04-23T06:51:16.235Z,995.7
2023-04-23T06:52:17.155Z,995.7
2023-04-23T06:53:18.225Z,995.7
2023-04-23T06:54:19.255Z,995.7
2023-04-23T06:55:20.231Z,995.7
2023-04-23T06:56:21.214Z,995.6
2023-04-23T06:57:22.266Z,995.7
2023-04-23T06:58:23.215Z,995.7
2023-04-23T06:59:24.698Z,995.7
2023-04-23T07:00:26.556Z,995.6
2023-04-23T07:01:28.206Z,995.6
2023-04-23T07:02:29.417Z,995.6
2023-04-23T07:03:30.372Z,995.5
2023-04-23T07:04:31.947Z,995.6
2023-04-23T07:05:33.183Z,995.7
2023-04-23T07:06:34.150Z,995.6
2023-04-23T07:07:35.166Z,995.6
2023-04-23T07:08:36.209Z,995.5
2023-04-23T07:09:37.193Z,995.5
2023-04-23T07:10:38.256Z,995.6
2023-04-23T07:11:39.252Z,995.6
2023-04-23T07:12:41.227Z,995.6
2023-04-23T07:13:42.272Z,995.6
2023-04-23T07:14:43.505Z,995.5
2023-04-23T07:15:44.736Z,995.6
2023-04-23T07:16:46.201Z,995.6
2023-04-23T07:17:47.277Z,995.5
2023-04-23T07:18:48.258Z,995.5
2023-04-23T07:19:49.195Z,995.5
2023-04-23T07:20:51.453Z,995.5
2023-04-23T07:21:53.182Z,995.4
2023-04-23T07:22:54.558Z,995.5
2023-04-23T07:23:55.436Z,995.4
2023-04-23T07:24:56.854Z,995.4
2023-04-23T07:25:58.239Z,995.4
2023-04-23T07:26:59.245Z,995.5
2023-04-23T07:28:00.217Z,995.4
2023-04-23T07:29:01.217Z,995.4
2023-04-23T07:30:02.381Z,995.4
2023-04-23T07:31:03.230Z,995.4
2023-04-23T07:32:04.252Z,995.4
2023-04-23T07:33:05.466Z,995.4
2023-04-23T07:34:06.243Z,995.4
2023-04-23T07:35:07.303Z,995.4
2023-04-23T07:36:08.221Z,995.4
2023-04-23T07:37:10.264Z,995.4
2023-04-23T07:38:11.199Z,995.4
2023-04-23T07:39:12.199Z,995.3
2023-04-23T07:40:13.848Z,995.3
2023-04-23T07:41:15.524Z,995.4
2023-04-23T07:42:17.446Z,995.4
2023-04-23T07:43:18.227Z,995.4
2023-04-23T07:44:19.245Z,995.4
2023-04-23T07:45:20.240Z,995.3
2023-04-23T07:46:21.436Z,995.3
2023-04-23T07:47:22.287Z,995.3
2023-04-23T07:48:23.284Z,995.3
2023-04-23T07:49:24.473Z,995.3
2023-04-23T07:50:25.265Z,995.3
2023-04-23T07:51:26.268Z,995.2
2023-04-23T07:52:27.231Z,995.2
2023-04-23T07:53:28.184Z,995.3
2023-04-23T07:54:29.230Z,995.3
2023-04-23T07:55:30.259Z,995.3
2023-04-23T07:56:31.308Z,995.2
2023-04-23T07:57:32.299Z,995.2
2023-04-23T07:58:33.272Z,995.2
2023-04-23T07:59:34.151Z,995.2
2023-04-23T08:00:35.463Z,995.3
2023-04-23T08:01:37.681Z,995.2
2023-04-23T08:02:39.516Z,995.4
2023-04-23T08:03:40.311Z,995.3
2023-04-23T08:04:41.463Z,995.2
2023-04-23T08:05:42.263Z,995.3
2023-04-23T08:06:43.431Z,995.3
2023-04-23T08:07:44.214Z,995.2
2023-04-23T08:08:45.604Z,995.2
2023-04-23T08:09:47.370Z,995.3
2023-04-23T08:10:48.519Z,995.3
2023-04-23T08:11:49.210Z,995.3
2023-04-23T08:12:50.261Z,995.2
2023-04-23T08:13:51.298Z,995.2
2023-04-23T08:14:52.271Z,995.2
2023-04-23T08:15:53.300Z,995.2
2023-04-23T08:16:54.190Z,995.2
2023-04-23T08:17:55.297Z,995.2
2023-04-23T08:19:04.629Z,995.2
2023-04-23T08:19:57.281Z,995.2
2023-04-23T08:20:58.301Z,995.1
2023-04-23T08:21:59.228Z,995.2
2023-04-23T08:23:00.287Z,995.1
2023-04-23T08:24:01.190Z,995.1
2023-04-23T08:25:02.241Z,995.1
2023-04-23T08:26:03.264Z,995.2
2023-04-23T08:27:04.480Z,995.2
2023-04-23T08:28:05.301Z,995.1
2023-04-23T08:29:06.344Z,995.2
2023-04-23T08:30:07.298Z,995.2
2023-04-23T08:31:19.087Z,995.1
2023-04-23T08:32:09.279Z,995.1
2023-04-23T08:33:10.329Z,995.1
2023-04-23T08:34:11.312Z,995.1
2023-04-23T08:35:12.359Z,995.1
2023-04-23T08:36:13.300Z,995.1
2023-04-23T08:37:23.457Z,995.1
2023-04-23T08:38:15.241Z,995.1
2023-04-23T08:39:16.302Z,995.1
2023-04-23T08:40:17.405Z,994.8
2023-04-23T08:41:18.355Z,995
2023-04-23T08:42:20.341Z,995
2023-04-23T08:43:21.796Z,995
2023-04-23T08:44:23.310Z,995
2023-04-23T08:45:24.331Z,995
2023-04-23T08:46:25.319Z,995
2023-04-23T08:47:26.278Z,995
2023-04-23T08:48:27.270Z,995
2023-04-23T08:49:28.360Z,995
2023-04-23T08:50:29.275Z,995
2023-04-23T08:51:30.240Z,995
2023-04-23T08:52:31.242Z,995
2023-04-23T08:53:32.229Z,994.9
2023-04-23T08:54:33.299Z,994.9
2023-04-23T08:55:34.321Z,994.9
2023-04-23T08:56:35.575Z,994.9
2023-04-23T08:57:37.277Z,994.9
2023-04-23T08:58:38.312Z,994.9
2023-04-23T08:59:39.573Z,994.9
2023-04-23T09:00:40.872Z,994.9
2023-04-23T09:01:42.459Z,994.9
2023-04-23T09:02:43.347Z,994.9
2023-04-23T09:03:44.488Z,995
2023-04-23T09:04:45.337Z,995
2023-04-23T09:05:46.237Z,994.9
2023-04-23T09:06:50.245Z,994.8
2023-04-23T09:07:51.283Z,994.9
2023-04-23T09:08:52.686Z,994.9
2023-04-23T09:09:54.694Z,994.9
2023-04-23T09:10:56.274Z,994.9
2023-04-23T09:11:57.352Z,994.9
2023-04-23T09:12:59.047Z,994.9
2023-04-23T09:14:00.347Z,994.9
2023-04-23T09:15:01.386Z,994.9
2023-04-23T09:16:02.355Z,994.8
2023-04-23T09:17:03.336Z,994.9
2023-04-23T09:18:04.397Z,994.9
2023-04-23T09:19:05.231Z,994.9
2023-04-23T09:20:06.278Z,994.9
2023-04-23T09:21:07.377Z,994.8
2023-04-23T09:22:08.503Z,994.8
2023-04-23T09:23:09.258Z,994.8
2023-04-23T09:24:10.275Z,994.8
2023-04-23T09:25:11.284Z,994.8
2023-04-23T09:26:12.233Z,994.8
2023-04-23T09:27:13.542Z,994.7
2023-04-23T09:28:14.463Z,994.8
2023-04-23T09:29:15.359Z,994.8
2023-04-23T09:30:16.420Z,994.8
2023-04-23T09:31:17.322Z,994.8
2023-04-23T09:32:18.370Z,994.8
2023-04-23T09:33:19.252Z,994.8
2023-04-23T09:34:20.363Z,994.8
2023-04-23T09:35:21.424Z,994.7
2023-04-23T09:36:22.254Z,994.7
2023-04-23T09:37:23.318Z,994.7
2023-04-23T09:38:24.319Z,994.7
2023-04-23T09:39:25.269Z,994.7
2023-04-23T09:40:26.316Z,994.7
2023-04-23T09:41:27.302Z,994.7
2023-04-23T09:42:28.317Z,994.7
2023-04-23T09:43:29.255Z,994.7
2023-04-23T09:44:30.315Z,994.8
2023-04-23T09:45:31.277Z,994.7
2023-04-23T09:46:32.295Z,994.8
2023-04-23T09:47:33.283Z,994.8
2023-04-23T09:48:34.250Z,994.8
2023-04-23T09:49:35.294Z,994.7
2023-04-23T09:50:36.305Z,994.8
2023-04-23T09:51:37.253Z,994.7
2023-04-23T09:52:38.259Z,994.7
2023-04-23T09:53:40.328Z,994.7
2023-04-23T09:54:40.257Z,994.8
2023-04-23T09:55:41.539Z,994.7
2023-04-23T09:56:42.436Z,994.7
2023-04-23T09:57:43.314Z,994.7
2023-04-23T09:58:44.379Z,994.7
2023-04-23T09:59:49.993Z,994.7
2023-04-23T10:00:46.314Z,994.8
2023-04-23T10:01:47.458Z,994.7
2023-04-23T10:02:48.629Z,994.8
2023-04-23T10:03:49.435Z,994.7
2023-04-23T10:04:50.412Z,994.7
2023-04-23T10:06:00.941Z,994.7
2023-04-23T10:07:07.461Z,994.7
2023-04-23T10:07:53.377Z,994.8
2023-04-23T10:08:54.374Z,994.8
2023-04-23T10:09:55.473Z,994.7
2023-04-23T10:11:06.451Z,994.7
2023-04-23T10:11:57.269Z,994.7
2023-04-23T10:12:58.503Z,994.7
2023-04-23T10:13:59.380Z,994.8
2023-04-23T10:15:00.416Z,994.7
2023-04-23T10:16:10.557Z,994.7
2023-04-23T10:17:02.391Z,994.7
2023-04-23T10:18:03.403Z,994.8
2023-04-23T10:19:04.335Z,994.3
2023-04-23T10:20:05.302Z,994.6
2023-04-23T10:21:06.336Z,994.7
2023-04-23T10:22:18.326Z,994.7
2023-04-23T10:23:08.332Z,994.7
2023-04-23T10:24:09.324Z,994.8
2023-04-23T10:25:10.354Z,994.7
2023-04-23T10:26:11.293Z,994.7
2023-04-23T10:27:21.894Z,994.7
2023-04-23T10:28:13.332Z,994.7
2023-04-23T10:29:14.357Z,994.7
2023-04-23T10:30:15.313Z,994.7
2023-04-23T10:31:16.882Z,994.7
2023-04-23T10:32:18.356Z,994.7
2023-04-23T10:33:29.324Z,994.7
2023-04-23T10:34:20.325Z,994.8
2023-04-23T10:35:21.339Z,994.7
2023-04-23T10:36:22.414Z,994.7
2023-04-23T10:37:23.359Z,994.7
2023-04-23T10:38:24.275Z,994.7
2023-04-23T10:39:29.934Z,994.8
2023-04-23T10:40:26.715Z,994.7
2023-04-23T10:41:28.390Z,994.7
2023-04-23T10:42:29.311Z,994.7
2023-04-23T10:43:30.372Z,994.6
2023-04-23T10:44:45.181Z,994.6
2023-04-23T10:45:32.303Z,994.7
2023-04-23T10:46:34.090Z,994.7
2023-04-23T10:47:34.292Z,994.7
2023-04-23T10:48:35.316Z,994.8
2023-04-23T10:49:36.276Z,994.7
2023-04-23T10:50:37.887Z,994.8
2023-04-23T10:52:39.528Z,994.7
2023-04-23T10:53:40.381Z,994.7
2023-04-23T10:54:41.347Z,994.7
2023-04-23T10:55:42.331Z,994.7
2023-04-23T10:56:44.335Z,994.7
2023-04-23T10:57:45.378Z,994.7
2023-04-23T10:58:46.342Z,994.8
2023-04-23T10:59:47.344Z,994.7
2023-04-23T11:00:48.317Z,994.7
2023-04-23T11:01:49.345Z,994.7
2023-04-23T11:02:50.431Z,994.7
2023-04-23T11:03:51.499Z,994.7
2023-04-23T11:04:52.731Z,994.7
2023-04-23T11:05:53.337Z,994.7
2023-04-23T11:06:54.418Z,994.7
2023-04-23T11:07:55.464Z,994.7
2023-04-23T11:08:56.358Z,994.7
2023-04-23T11:09:57.379Z,994.7
2023-04-23T11:10:58.363Z,994.6
2023-04-23T11:11:59.516Z,994.6
2023-04-23T11:13:00.615Z,994.6
2023-04-23T11:14:02.301Z,994.7
2023-04-23T11:15:03.401Z,994.7
2023-04-23T11:16:04.379Z,994.6
2023-04-23T11:17:05.428Z,994.6
2023-04-23T11:18:06.428Z,994.7
2023-04-23T11:19:07.360Z,994.7
2023-04-23T11:20:08.361Z,994.7
2023-04-23T11:21:09.375Z,994.7
2023-04-23T11:22:10.345Z,994.7
2023-04-23T11:23:11.333Z,994.7
2023-04-23T11:24:12.285Z,994.7
2023-04-23T11:25:13.366Z,994.6
2023-04-23T11:26:14.456Z,994.7
2023-04-23T11:27:15.332Z,994.7
2023-04-23T11:28:16.406Z,994.7
2023-04-23T11:29:17.376Z,994.7
2023-04-23T11:30:18.381Z,994.7
2023-04-23T11:31:19.480Z,994.3
2023-04-23T11:32:20.360Z,994.7
2023-04-23T11:33:21.412Z,994.7
2023-04-23T11:34:22.286Z,994.7
2023-04-23T11:35:23.320Z,994.7
2023-04-23T11:36:24.335Z,994.6
2023-04-23T11:37:25.335Z,994.7
2023-04-23T11:38:26.376Z,994.6
2023-04-23T11:39:27.364Z,994.7
2023-04-23T11:40:28.337Z,994.6
2023-04-23T11:41:29.547Z,994.6
2023-04-23T11:42:30.302Z,994.7
2023-04-23T11:43:31.427Z,994.6
2023-04-23T11:44:32.396Z,994.6
2023-04-23T11:45:33.609Z,994.7
2023-04-23T11:46:34.472Z,994.6
2023-04-23T11:47:35.326Z,994.6
2023-04-23T11:48:36.369Z,994.6
2023-04-23T11:49:37.349Z,994.7
2023-04-23T11:50:38.518Z,994.6
2023-04-23T11:51:39.485Z,994.6
2023-04-23T11:52:40.337Z,994.6
2023-04-23T11:53:41.652Z,994.6
2023-04-23T11:54:42.378Z,994.6
2023-04-23T11:55:43.432Z,994.6
2023-04-23T11:56:44.366Z,994.6
2023-04-23T11:57:45.896Z,994.6
2023-04-23T11:58:47.424Z,994.6
2023-04-23T11:59:48.371Z,994.6
2023-04-23T12:00:49.333Z,994.6
2023-04-23T12:01:50.568Z,994.7
2023-04-23T12:02:51.982Z,994.7
2023-04-23T12:03:53.479Z,994.7
2023-04-23T12:04:54.390Z,994.7
2023-04-23T12:05:55.387Z,994.7
2023-04-23T12:06:56.710Z,994.7
2023-04-23T12:07:58.417Z,994.7
2023-04-23T12:08:59.466Z,994.7
2023-04-23T12:10:00.726Z,994.7
2023-04-23T12:11:01.375Z,994.7
2023-04-23T12:12:02.696Z,994.8
2023-04-23T12:13:04.854Z,994.8
2023-04-23T12:14:06.476Z,994.8
2023-04-23T12:15:08.521Z,994.9
2023-04-23T12:16:11.256Z,994.9
2023-04-23T12:17:12.647Z,994.9
2023-04-23T12:18:14.373Z,994.9
2023-04-23T12:19:15.433Z,994.9
2023-04-23T12:20:16.438Z,994.9
2023-04-23T12:21:17.395Z,994.9
2023-04-23T12:22:18.433Z,994.9
2023-04-23T12:23:19.354Z,994.5
2023-04-23T12:24:20.430Z,994.8
2023-04-23T12:25:21.433Z,994.8
2023-04-23T12:26:22.594Z,994.9
2023-04-23T12:27:23.574Z,994.9
2023-04-23T12:28:25.035Z,994.9
2023-04-23T12:29:26.439Z,994.9
2023-04-23T12:30:27.369Z,995
2023-04-23T12:31:28.445Z,994.9
2023-04-23T12:32:29.389Z,995
2023-04-23T12:33:30.400Z,994.9
2023-04-23T12:34:31.415Z,994.9
2023-04-23T12:35:32.513Z,995
2023-04-23T12:36:33.534Z,995
2023-04-23T12:37:34.415Z,995
2023-04-23T12:38:35.535Z,995
2023-04-23T12:39:36.669Z,995
2023-04-23T12:40:38.201Z,994.9
2023-04-23T12:41:39.403Z,995
2023-04-23T12:42:40.418Z,995
2023-04-23T12:43:41.372Z,995
2023-04-23T12:44:42.436Z,995
2023-04-23T12:45:43.365Z,995
2023-04-23T12:46:44.443Z,995
2023-04-23T12:47:46.483Z,995
2023-04-23T12:48:47.677Z,994.5
2023-04-23T12:49:50.357Z,994.9
2023-04-23T12:50:51.445Z,995
2023-04-23T12:51:52.402Z,995
2023-04-23T12:52:53.388Z,995
2023-04-23T12:53:54.466Z,995
2023-04-23T12:54:55.495Z,995
2023-04-23T12:55:56.395Z,995
2023-04-23T12:56:57.538Z,995
2023-04-23T12:57:59.436Z,995
2023-04-23T12:59:00.719Z,995.1
2023-04-23T13:00:03.106Z,995
2023-04-23T13:01:05.559Z,995
2023-04-23T13:02:07.136Z,995
2023-04-23T13:03:08.551Z,995.2
2023-04-23T13:04:09.429Z,995.2
2023-04-23T13:05:10.496Z,995.2
2023-04-23T13:06:11.416Z,995.3
2023-04-23T13:07:12.567Z,995.3
2023-04-23T13:08:13.587Z,995.2
2023-04-23T13:09:15.077Z,995.3
2023-04-23T13:10:16.524Z,995.3
2023-04-23T13:11:17.405Z,995.3
2023-04-23T13:12:18.440Z,995.4